Strinestown, Pennsylvania
Current Conditions -  °F | °C
As of 6:45 AM on Tuesday 21 Oct 2014 (Local Time) from KMDT Reporting Station
Haze Haze  
Wind Chill: 50°   Ceiling: 9500
Heat Index: 50°   Visibility: 5mi
Dew Point: 49°   Wind: 0mph
Humidity: 96%   Direction: NA
Pressure: 29.85"   Gusts: NA
Location:  40.0596°N, 76.7235°W
Report Text: KMDT 211045Z 00000KT 5SM BR BKN095 10/09 A2985 RMK AO2 T01000094
Loading
Personal Weather Stations






























Interactive Weather Map
Tropical Storm Tracking
New forecast layout! Learn more

10-Day Weather Forecast

Advertisements
Track Severe Weather on mobile